Raymond, Minnesota
Current Conditions -  °F | °C
As of 1:35 AM on Wednesday 22 Oct 2014 (Local Time) from KBDH Reporting Station
Clear Clear  
Wind Chill: 42°   Ceiling: Unl
Heat Index: 48°   Visibility: 10mi
Dew Point: 39°   Wind: 16mph
Humidity: 71%   Direction: 140°SE
Pressure: 30.08"   Gusts: NA
Location:  45.02°N, 95.24°W
Report Text: KBDH 220635Z AUTO 14014KT 10SM CLR 09/04 A3008 RMK AO2
Loading
Personal Weather Stations






























Interactive Weather Map
Tropical Storm Tracking
New forecast layout! Learn more

10-Day Weather Forecast

Advertisements
Track Severe Weather on mobile